This is the latest recevied weather packets stored in our database for station/object NC4M. If no packets are shown the sender has not sent any weather packets the latest 1 day(s).
| Time | Temp. | Humidity | Pressure | Rain* | Wind** | Luminosity | Snow |
|---|---|---|---|---|---|---|---|
| 1778019957 | 7.22° C | 92% | 1010.6 hPa | 0 mm | 0 m/s | 38 W/m² | - |
| 1778019654 | 7.22° C | 92% | 1010.5 hPa | 1.78 mm | 0 m/s | 33 W/m² | - |
| 1778019351 | 7.78° C | 92% | 1010.4 hPa | 1.78 mm | 0 m/s | 48 W/m² | - |
| 1778019047 | 7.22° C | 92% | 1010.5 hPa | 0 mm | 0.45 m/s, 314° | 28 W/m² | - |
| 1778018744 | 7.22° C | 91% | 1010.7 hPa | 1.27 mm | 0 m/s | 42 W/m² | - |
| 1778018442 | 7.78° C | 91% | 1010.5 hPa | 1.27 mm | 0.45 m/s, 288° | 33 W/m² | - |
| 1778018140 | 7.78° C | 91% | 1010 hPa | 0 mm | 0 m/s | 38 W/m² | - |
| 1778017838 | 7.78° C | 90% | 1010.1 hPa | 1.78 mm | 0 m/s | 32 W/m² | - |
| 1778017536 | 7.78° C | 88% | 1010.3 hPa | 0 mm | 0 m/s | 39 W/m² | - |
| 1778017232 | 7.78° C | 88% | 1010.3 hPa | 0 mm | 0.89 m/s, 298° | 45 W/m² | - |
| 1778016930 | 7.78° C | 86% | 1010.1 hPa | 0 mm | 0.45 m/s, 286° | 30 W/m² | - |
| 1778016626 | 7.78° C | 86% | 1010 hPa | 0 mm | 0.89 m/s, 260° | 50 W/m² | - |
| 1778016322 | 8.33° C | 84% | 1010.2 hPa | 0 mm | 0.45 m/s, 60° | 37 W/m² | - |
| 1778016020 | 8.33° C | 82% | 1010.1 hPa | 0 mm | 0 m/s | 41 W/m² | - |
| 1778015717 | 8.33° C | 80% | 1010.4 hPa | 0 mm | 0.89 m/s, 36° | 31 W/m² | - |
| 1778015414 | 8.33° C | 80% | 1010.1 hPa | 0 mm | 0 m/s | 36 W/m² | - |
| 1778015110 | 8.89° C | 78% | 1010 hPa | 0 mm | 0 m/s | 38 W/m² | - |
| 1778014807 | 8.89° C | 76% | 1010.1 hPa | 0 mm | 0.45 m/s, 84° | 57 W/m² | - |
| 1778014505 | 8.89° C | 76% | 1010 hPa | 0 mm | 1.34 m/s, 39° | 59 W/m² | - |
| 1778014202 | 8.89° C | 74% | 1010 hPa | 0 mm | 0.45 m/s, 25° | 54 W/m² | - |
| 1778013900 | 8.89° C | 74% | 1009.8 hPa | 0 mm | 0.45 m/s, 71° | 46 W/m² | - |
| 1778013597 | 8.89° C | 78% | 1010.1 hPa | 0 mm | 0 m/s | 48 W/m² | - |
| 1778013293 | 8.89° C | 76% | 1010 hPa | 0 mm | 0.45 m/s, 137° | 38 W/m² | - |
| 1778012990 | 9.44° C | 76% | 1009.8 hPa | 0 mm | 0 m/s | 54 W/m² | - |
| 1778012687 | 8.89° C | 78% | 1009.9 hPa | 0 mm | 0 m/s | 55 W/m² | - |
* Rain latest hour (hover to see other rain measurements)
** Current wind speed in m/s (hover to see current wind gust speed)